Flight Track Log - Related Links

Times and Time Zones

All times are in EDT time to prevent confusion due to time zone crossing. See the ASQ4229 flight status page for this flight to view local times or setup timezone preferences in your user account.

Time Position Orientation Groundspeed Altitude Reporting Facility
EDT Latitude Longitude Course Direction KTS MPH feet Rate Location/Type
Thu 06:36:25 AM 39.0500 -84.6833 208° Southwest 162 186 1,400  Level Cincinnati TRACON
Thu 06:37:01 AM 39.0333 -84.7167 237° Southwest 185 213 3,000 2,412 Climbing Cincinnati TRACON
Thu 06:38:07 AM 38.9667 -84.7500 201° Southwest 256 295 5,500 2,513 Climbing Cincinnati TRACON
Thu 06:39:00 AM 38.8589 -84.9316 213° Southwest  Level Estimated
Thu 06:40:00 AM 38.7735 -84.8837 156° South  Level FlightAware Approximate
Thu 06:40:12 AM 38.8350 -84.8128 200° South 263 303 11,000  Level Indianapolis Center
Thu 06:41:00 AM 38.7106 -84.9719 208° Southwest  Level Estimated
Thu 06:41:12 AM 38.7647 -84.8717 213° Southwest 300 345 12,900  Level Indianapolis Center
Thu 06:42:13 AM 38.6994 -84.9417 220° Southwest 303 349 15,200 2,213 Climbing Indianapolis Center
Thu 06:43:14 AM 38.6236 -85.0228 220° Southwest 318 366 17,400 1,721 Climbing Indianapolis Center
Thu 06:44:15 AM 38.5561 -85.0956 220° Southwest 319 367 18,700 1,488 Climbing Indianapolis Center
Thu 06:45:15 AM 38.4844 -85.1722 220° Southwest 332 382 20,400 1,736 Climbing Indianapolis Center
Thu 06:46:16 AM 38.4175 -85.2450 220° Southwest 336 387 22,200 1,967 Climbing Indianapolis Center
Thu 06:47:17 AM 38.3472 -85.3189 220° Southwest 327 376 24,400 2,213 Climbing Indianapolis Center
Thu 06:48:18 AM 38.2814 -85.3894 220° Southwest 313 360 26,700 2,132 Climbing Indianapolis Center
Thu 06:49:18 AM 38.2172 -85.4578 220° Southwest 300 345 28,700 1,884 Climbing Indianapolis Center
Thu 06:50:19 AM 38.1550 -85.5231 220° Southwest 292 336 30,500 1,574 Climbing Indianapolis Center
Thu 06:51:20 AM 38.1053 -85.5953 229° Southwest 285 328 31,900 1,180 Climbing Indianapolis Center
Thu 06:52:21 AM 38.0961 -85.6892 263° West 272 313 32,900 1,131 Climbing Indianapolis Center
Thu 06:53:22 AM 38.0875 -85.7861 264° West 275 316 34,200 1,388 Climbing Indianapolis Center
Thu 06:54:22 AM 38.0817 -85.8789 265° West 266 306 35,700 893 Climbing Indianapolis Center
Thu 06:55:23 AM 38.0756 -85.9717 265° West 262 302 36,000 148 Climbing Indianapolis Center
Thu 06:56:24 AM 38.0658 -86.0939 264° West 285 328 36,000  Level Indianapolis Center
Thu 06:57:25 AM 38.0578 -86.1975 264° West 293 337 36,000  Level Indianapolis Center
Thu 06:58:26 AM 38.0503 -86.3017 265° West 294 338 36,000  Level Indianapolis Center
Thu 06:59:27 AM 38.0425 -86.4064 265° West 295 339 36,000  Level Indianapolis Center
Thu 07:00:28 AM 38.0339 -86.5114 264° West 297 342 36,000  Level Indianapolis Center
Thu 07:01:29 AM 38.0258 -86.6167 264° West 299 344 36,000  Level Indianapolis Center
Thu 07:02:29 AM 38.0164 -86.7219 264° West 297 342 36,000  Level Indianapolis Center
Thu 07:03:30 AM 38.0075 -86.8289 264° West 300 345 36,000  Level Indianapolis Center
Thu 07:04:31 AM 37.9997 -86.9353 265° West 301 346 36,000  Level Indianapolis Center
Thu 07:05:32 AM 37.9906 -87.0425 264° West 302 348 36,000  Level Indianapolis Center
Thu 07:06:33 AM 37.9819 -87.1511 264° West 306 352 36,000  Level Indianapolis Center
Thu 07:07:34 AM 37.9717 -87.2631 263° West 314 361 36,000  Level Indianapolis Center
Thu 07:08:35 AM 37.9617 -87.3744 264° West 315 362 36,000  Level Indianapolis Center
Thu 07:09:36 AM 37.9278 -87.4781 248° West 324 373 36,000  Level Indianapolis Center
Thu 07:10:37 AM 37.8561 -87.5572 221° Southwest 340 391 36,000  Level Indianapolis Center
Thu 07:11:38 AM 37.7847 -87.6358 221° Southwest 338 389 36,000  Level Indianapolis Center
Thu 07:12:40 AM 37.7122 -87.7139 220° Southwest 336 387 36,000  Level Indianapolis Center
Thu 07:13:41 AM 37.6414 -87.7917 221° Southwest 335 386 36,000  Level Indianapolis Center
Thu 07:14:42 AM 37.5708 -87.8689 221° Southwest 334 384 36,000  Level Indianapolis Center
Thu 07:15:43 AM 37.5003 -87.9447 220° Southwest 332 382 36,000  Level Indianapolis Center
Thu 07:16:44 AM 37.4278 -88.0206 220° Southwest 336 387 36,000  Level Indianapolis Center
Thu 07:17:45 AM 37.3511 -88.1053 221° Southwest 336 387 36,000  Level Memphis Center
Thu 07:19:48 AM 37.2142 -88.2408 218° Southwest 327 376 36,000  Level Indianapolis Center
Thu 07:20:45 AM 37.1464 -88.3269 225° Southwest 330 380 36,000  Level Memphis Center
Thu 07:21:45 AM 37.0831 -88.4042 224° Southwest 325 374 36,000  Level Memphis Center
Thu 07:22:45 AM 37.0178 -88.4811 223° Southwest 325 374 36,000  Level Memphis Center
Thu 07:23:45 AM 36.9522 -88.5578 223° Southwest 325 374 36,000  Level Memphis Center
Thu 07:24:45 AM 36.8886 -88.6319 223° Southwest 320 368 36,000  Level Memphis Center
Thu 07:25:45 AM 36.8231 -88.7058 222° Southwest 320 368 36,000  Level Memphis Center
Thu 07:26:45 AM 36.7572 -88.7797 222° Southwest 320 368 36,000  Level Memphis Center
Thu 07:27:45 AM 36.6914 -88.8561 223° Southwest 320 368 36,000  Level Memphis Center
Thu 07:28:45 AM 36.6297 -88.9272 223° Southwest 315 362 36,000  Level Memphis Center
Thu 07:29:45 AM 36.5639 -89.0031 223° Southwest 315 362 36,000  Level Memphis Center
Thu 07:30:45 AM 36.4958 -89.0767 221° Southwest 315 362 36,000  Level Memphis Center
Thu 07:31:45 AM 36.4381 -89.1394 221° Southwest 315 362 36,000  Level Memphis Center
Thu 07:32:45 AM 36.3661 -89.2306 226° Southwest 320 368 36,000  Level Memphis Center
Thu 07:33:45 AM 36.2978 -89.2961 218° Southwest 326 375 36,000  Level Memphis Center
Thu 07:34:45 AM 36.2339 -89.3742 225° Southwest 336 387 36,000  Level Memphis Center
Thu 07:35:45 AM 36.1678 -89.4494 223° Southwest 336 387 36,000  Level Memphis Center
Thu 07:36:45 AM 36.0931 -89.5144 215° Southwest 336 387 36,000  Level Memphis Center
Thu 07:37:45 AM 35.9975 -89.5564 200° South 343 395 36,000  Level Memphis Center
Thu 07:38:45 AM 35.9061 -89.6011 202° Southwest 355 409 36,000  Level Memphis Center
Thu 07:39:45 AM 35.8103 -89.6453 200° South 366 421 36,000  Level Memphis Center
Thu 07:40:45 AM 35.7189 -89.6922 203° Southwest 366 421 36,000  Level Memphis Center
Thu 07:41:45 AM 35.6294 -89.7339 201° Southwest 360 414 36,000  Level Memphis Center
Thu 07:42:45 AM 35.5589 -89.8058 220° Southwest 342 394 36,000  Level Memphis Center
Thu 07:43:45 AM 35.4967 -89.8853 226° Southwest 335 386 36,000  Level Memphis Center
Thu 07:44:45 AM 35.4322 -89.9647 225° Southwest 330 380 36,000  Level Memphis Center
Thu 07:45:45 AM 35.3678 -90.0464 226° Southwest 330 380 36,000  Level Memphis Center
Thu 07:46:45 AM 35.3033 -90.1256 225° Southwest 330 380 36,000  Level Memphis Center
Thu 07:47:45 AM 35.2389 -90.2069 226° Southwest 330 380 36,000  Level Memphis Center
Thu 07:48:45 AM 35.1681 -90.2936 225° Southwest 330 380 36,000  Level Memphis Center
Thu 07:49:45 AM 35.1053 -90.3747 227° Southwest 330 380 36,000  Level Memphis Center
Thu 07:50:45 AM 35.0386 -90.4533 224° Southwest 330 380 36,000  Level Memphis Center
Thu 07:51:45 AM 34.9739 -90.5344 226° Southwest 330 380 36,000  Level Memphis Center
Thu 07:52:45 AM 34.9111 -90.6153 227° Southwest 324 373 36,000  Level Memphis Center
Thu 07:53:45 AM 34.8464 -90.6936 225° Southwest 323 372 36,000  Level Memphis Center
Thu 07:54:45 AM 34.7814 -90.7717 225° Southwest 328 377 36,000  Level Memphis Center
Thu 07:55:45 AM 34.7164 -90.8497 225° Southwest 328 377 36,000  Level Memphis Center
Thu 07:56:45 AM 34.6492 -90.9303 225° Southwest 328 377 36,000  Level Memphis Center
Thu 07:57:45 AM 34.5864 -91.0081 226° Southwest 328 377 36,000  Level Memphis Center
Thu 07:58:45 AM 34.5192 -91.0881 224° Southwest 328 377 36,000  Level Memphis Center
Thu 07:59:45 AM 34.4539 -91.1681 225° Southwest 328 377 36,000  Level Memphis Center
Thu 08:00:45 AM 34.3931 -91.2381 224° Southwest 333 383 36,000  Level Memphis Center
Thu 08:01:45 AM 34.3297 -91.3206 227° Southwest 328 377 36,000  Level Memphis Center
Thu 08:02:45 AM 34.2622 -91.3975 223° Southwest 334 384 36,000  Level Memphis Center
Thu 08:03:45 AM 34.1947 -91.4797 225° Southwest 329 379 36,000  Level Memphis Center
Thu 08:04:45 AM 34.1275 -91.5542 223° Southwest 329 379 36,000  Level Memphis Center
Thu 08:05:45 AM 34.0619 -91.6358 226° Southwest 334 384 36,000  Level Memphis Center
Thu 08:06:45 AM 34.0047 -91.7103 227° Southwest 334 384 36,000  Level Memphis Center
Thu 08:07:45 AM 33.9308 -91.7967 224° Southwest 334 384 36,000  Level Memphis Center
Thu 08:08:45 AM 33.8672 -91.8758 226° Southwest 339 390 36,000  Level Memphis Center
Thu 08:09:45 AM 33.7972 -91.9569 224° Southwest 339 390 36,000  Level Memphis Center
Thu 08:12:06 AM 33.6331 -92.1497 224° Southwest 329 379 36,000  Level Fort Worth Center
Thu 08:13:06 AM 33.5633 -92.2289 223° Southwest 342 394 36,000  Level Fort Worth Center
Thu 08:14:06 AM 33.4611 -92.2794 202° Southwest 368 423 36,000  Level Fort Worth Center
Thu 08:15:06 AM 33.3475 -92.3086 192° South 395 455 36,000  Level Fort Worth Center
Thu 08:16:06 AM 33.2361 -92.3372 192° South 407 468 36,000  Level Fort Worth Center
Thu 08:17:06 AM 33.1247 -92.3686 193° South 414 476 36,000  Level Fort Worth Center
Thu 08:18:06 AM 33.0089 -92.3997 193° South 419 482 36,000  Level Fort Worth Center
Thu 08:19:06 AM 32.8994 -92.4283 192° South 419 482 36,000  Level Fort Worth Center
Thu 08:20:06 AM 32.7858 -92.4592 193° South 419 482 36,000  Level Fort Worth Center
Thu 08:21:06 AM 32.6722 -92.4903 193° South 424 488 36,000  Level Fort Worth Center
Thu 08:23:28 AM 32.4000 -92.5642 193° South 422 486 36,000  Level Houston Center
Thu 08:24:30 AM 32.2847 -92.5928 192° South 424 488 36,000  Level Houston Center
Thu 08:25:31 AM 32.1714 -92.6236 193° South 421 484 36,000 -98 Level Houston Center
Thu 08:26:33 AM 32.0575 -92.6544 193° South 419 482 35,800 -484 Descending Houston Center
Thu 08:27:35 AM 31.9506 -92.6922 197° South 409 471 35,000 -390 Descending Houston Center
Thu 08:28:36 AM 31.8703 -92.7736 221° Southwest 381 438 35,000  Level Houston Center
Thu 08:29:38 AM 31.7875 -92.8556 220° Southwest 387 445 35,000  Level Houston Center
Thu 08:30:40 AM 31.7044 -92.9350 219° Southwest 386 444 35,000  Level Houston Center
Thu 08:31:41 AM 31.6081 -93.0314 220° Southwest 381 438 35,000  Level Houston Center
Thu 08:32:43 AM 31.5261 -93.1092 219° Southwest 382 440 35,000  Level Houston Center
Thu 08:33:45 AM 31.4425 -93.1886 219° Southwest 386 444 35,000  Level Houston Center
Thu 08:34:46 AM 31.3592 -93.2683 219° Southwest 388 447 35,000 -98 Level Houston Center
Thu 08:35:48 AM 31.2803 -93.3447 220° Southwest 383 441 34,800 -823 Descending Houston Center
Thu 08:36:50 AM 31.1914 -93.4283 219° Southwest 395 455 33,300 -1,610 Descending Houston Center
Thu 08:37:51 AM 31.0853 -93.5300 219° Southwest 411 473 31,500 -1,610 Descending Houston Center
Thu 08:38:53 AM 30.9939 -93.6161 219° Southwest 422 486 30,000 -1,452 Descending Houston Center
Thu 08:39:55 AM 30.9014 -93.7044 219° Southwest 431 496 28,500 -1,597 Descending Houston Center
Thu 08:40:57 AM 30.8064 -93.7936 219° Southwest 440 506 26,700 -1,854 Descending Houston Center
Thu 08:41:58 AM 30.7153 -93.8792 219° Southwest 427 491 24,700 -2,244 Descending Houston Center
Thu 08:43:00 AM 30.6258 -93.9644 219° Southwest 420 483 22,100 -2,419 Descending Houston Center
Thu 08:44:02 AM 30.5225 -94.0600 219° Southwest 400 460 19,700 -2,032 Descending Houston Center
Thu 08:45:04 AM 30.4442 -94.1344 219° Southwest 371 427 17,900 -1,826 Descending Houston Center
Thu 08:45:34 AM 30.3981 -94.1758 218° Southwest 350 403 16,900 -1,967 Descending Houston Center
Thu 08:46:05 AM 30.3672 -94.2061 220° Southwest 359 413 15,900 -2,226 Descending Houston Center
Thu 08:46:36 AM 30.3253 -94.2461 219° Southwest 353 406 14,600 -2,129 Descending Houston Center
Thu 08:47:07 AM 30.3022 -94.2869 237° Southwest 349 402 13,700 -2,164 Descending Houston Center
Thu 08:47:37 AM 30.2739 -94.3425 239° Southwest 322 371 12,400 -1,645 Descending Houston Center
Thu 08:48:09 AM 30.2575 -94.3775 242° Southwest 329 379 12,000 -885 Descending Houston Center
Thu 08:48:38 AM 30.2300 -94.4306 239° Southwest 292 336 11,500 -968 Descending Houston Center
Thu 08:49:11 AM 30.2167 -94.4594 242° Southwest 304 350 11,000 -1,967 Descending Houston Center
Thu 08:49:39 AM 30.1917 -94.5106 241° Southwest 273 314 9,500 -2,323 Descending Houston Center
Thu 08:50:13 AM 30.1767 -94.5425 241° Southwest 276 318 8,600 -1,935 Descending Houston Center
Thu 08:50:41 AM 30.1531 -94.5881 239° Southwest 274 315 7,500 -1,967 Descending Houston Center
Thu 08:51:14 AM 30.1450 -94.6208 254° West 272 313 6,600 -2,164 Descending Houston Center
Thu 08:51:42 AM 30.1294 -94.6708 250° West 272 313 5,300 -1,548 Descending Houston Center
Thu 08:52:16 AM 30.1217 -94.7031 254° West 269 310 5,000 -295 Descending Houston Center
Thu 08:52:43 AM 30.1039 -94.7539 248° West 261 300 5,000  Level Houston Center
Thu 08:53:18 AM 30.0928 -94.7972 254° West 260 299 5,000  Level Houston Center
Thu 08:53:38 AM 30.0836 -94.8264 250° West 262 302 5,000  Level Houston Center
Thu 08:54:20 AM 30.0697 -94.8781 253° West 266 306 5,000 98 Level Houston Center
Thu 08:54:39 AM 30.0597 -94.9092 250° West 266 306 5,100  Climbing Houston Center
Thu 08:55:22 AM 30.0461 -94.9578 252° West 264 304 5,000 -176 Descending Houston Center
Thu 08:55:47 AM 30.0342 -94.9944 249° West 255 293 4,900 -885 Descending Houston Center
Thu 08:56:23 AM 30.0236 -95.0333 253° West 253 291 4,100 -787 Descending Houston Center
Thu 08:56:48 AM 30.0100 -95.0700 247° West 239 275 4,100 -194 Level Houston Center
Thu 08:57:25 AM 30.0011 -95.1047 254° West 241 277 3,900 -689 Descending Houston Center
Thu 08:57:49 AM 29.9917 -95.1444 255° West 234 269 3,400 -1,065 Descending Houston Center
Thu 08:58:27 AM 29.9933 -95.1772 273° West 229 264 2,800 -1,180 Descending Houston Center
Thu 08:58:50 AM 29.9942 -95.2167 271° West 218 251 2,200 -1,452 Descending Houston Center
Thu 08:59:29 AM 29.9942 -95.2586 270° West 220 253 1,300 -968 Descending Houston Center
Thu 08:59:52 AM 29.9933 -95.2769 267° West 162 186 1,200 -261 Descending Houston Center

Login

Don't have an account? Register now (free) for customized features, flight alerts, and more!